createdAt,value
2019-04-07T00:03:58.606Z,4.23
2019-04-07T00:06:27.964Z,3.43
2019-04-07T00:08:57.209Z,2.37
2019-04-07T00:11:26.989Z,3.77
2019-04-07T00:13:56.252Z,3.37
2019-04-07T00:16:25.602Z,3.30
2019-04-07T00:18:55.682Z,3.60
2019-04-07T00:21:26.133Z,3.50
2019-04-07T00:23:55.573Z,3.73
2019-04-07T00:26:26.354Z,3.37
2019-04-07T00:28:55.651Z,3.23
2019-04-07T00:31:24.960Z,4.37
2019-04-07T00:33:54.540Z,3.20
2019-04-07T00:36:25.762Z,3.50
2019-04-07T00:38:55.243Z,3.33
2019-04-07T00:41:24.841Z,3.80
2019-04-07T00:43:56.142Z,2.90
2019-04-07T00:46:26.847Z,3.90
2019-04-07T00:48:57.832Z,3.07
2019-04-07T00:51:29.083Z,3.27
2019-04-07T00:53:58.434Z,2.50
2019-04-07T00:56:28.472Z,2.70
2019-04-07T00:58:58.852Z,3.23
2019-04-07T01:01:48.876Z,3.90
2019-04-07T01:04:19.125Z,4.93
2019-04-07T01:06:48.605Z,5.07
2019-04-07T01:09:17.974Z,3.67
2019-04-07T01:11:47.618Z,2.80
2019-04-07T01:14:17.059Z,3.30
2019-04-07T01:16:46.357Z,3.20
2019-04-07T01:19:16.317Z,3.10
2019-04-07T01:21:45.957Z,3.07
2019-04-07T01:24:15.504Z,3.53
2019-04-07T01:26:45.034Z,5.87
2019-04-07T01:29:34.177Z,4.73
2019-04-07T01:32:03.810Z,2.90
2019-04-07T01:34:34.042Z,3.23
2019-04-07T01:37:04.778Z,4.33
2019-04-07T01:39:34.923Z,2.60
2019-04-07T01:42:27.940Z,2.73
2019-04-07T01:45:16.844Z,3.07
2019-04-07T01:48:06.135Z,3.27
2019-04-07T01:53:46.589Z,3.47
2019-04-07T01:56:24.896Z,3.13
2019-04-07T01:59:13.226Z,2.97
2019-04-07T02:02:02.052Z,3.00
2019-04-07T02:04:51.300Z,3.17
2019-04-07T02:07:40.618Z,3.30
2019-04-07T02:10:49.577Z,3.23
2019-04-07T02:13:37.864Z,3.50
2019-04-07T02:16:26.012Z,4.50
2019-04-07T02:19:14.258Z,3.20
2019-04-07T02:22:02.446Z,3.43
2019-04-07T02:24:46.389Z,3.50
2019-04-07T02:27:34.856Z,3.50
2019-04-07T02:33:18.389Z,3.43
2019-04-07T02:36:18.173Z,3.53
2019-04-07T02:38:42.459Z,3.50
2019-04-07T02:41:30.724Z,4.33
2019-04-07T02:44:19.168Z,3.10
2019-04-07T02:47:08.193Z,5.17
2019-04-07T02:49:57.287Z,3.77
2019-04-07T02:52:37.680Z,3.33
2019-04-07T02:55:28.008Z,3.73
2019-04-07T02:58:17.870Z,3.60
2019-04-07T03:01:06.888Z,3.17
2019-04-07T03:03:55.549Z,5.53
2019-04-07T03:09:29.909Z,3.53
2019-04-07T03:12:07.759Z,3.50
2019-04-07T03:14:56.216Z,3.87
2019-04-07T03:17:44.378Z,3.43
2019-04-07T03:20:32.622Z,3.00
2019-04-07T03:23:07.519Z,3.63
2019-04-07T03:31:44.114Z,4.77
2019-04-07T03:34:23.949Z,3.50
2019-04-07T03:37:18.433Z,4.13
2019-04-07T03:39:53.022Z,4.67
2019-04-07T03:42:41.651Z,3.83
2019-04-07T03:45:30.494Z,3.60
2019-04-07T03:48:19.499Z,4.00
2019-04-07T03:51:09.111Z,3.80
2019-04-07T03:53:57.544Z,4.00
2019-04-07T03:56:46.194Z,3.60
2019-04-07T03:59:35.164Z,3.27
2019-04-07T04:02:24.946Z,3.90
2019-04-07T04:04:59.713Z,5.53
2019-04-07T04:07:44.182Z,3.80
2019-04-07T04:10:27.661Z,3.87
2019-04-07T04:13:16.568Z,3.87
2019-04-07T04:15:50.181Z,4.00
2019-04-07T04:18:21.043Z,3.67
2019-04-07T04:20:50.264Z,3.73
2019-04-07T04:23:19.791Z,3.60
2019-04-07T04:25:49.168Z,3.60
2019-04-07T04:28:22.241Z,3.73
2019-04-07T04:30:52.299Z,3.60
2019-04-07T04:33:23.364Z,4.33
2019-04-07T04:35:53.830Z,3.90
2019-04-07T04:38:24.377Z,3.90
2019-04-07T04:40:53.621Z,3.83
2019-04-07T04:43:23.291Z,4.30
2019-04-07T04:45:54.623Z,3.87
2019-04-07T04:48:25.861Z,4.13
2019-04-07T04:50:56.212Z,3.80
2019-04-07T04:53:25.649Z,4.37
2019-04-07T04:55:56.369Z,4.37
2019-04-07T04:58:25.889Z,4.93
2019-04-07T05:01:11.857Z,3.87
2019-04-07T05:03:27.700Z,3.97
2019-04-07T05:05:57.571Z,3.87
2019-04-07T05:08:29.568Z,4.17
2019-04-07T05:10:59.946Z,4.47
2019-04-07T05:13:30.649Z,4.57
2019-04-07T05:16:00.521Z,4.03
2019-04-07T05:18:30.886Z,4.37
2019-04-07T05:21:39.498Z,4.87
2019-04-07T05:24:09.288Z,4.23
2019-04-07T05:26:40.341Z,4.37
2019-04-07T05:29:11.108Z,4.93
2019-04-07T05:31:40.322Z,5.03
2019-04-07T05:34:09.593Z,4.93
2019-04-07T05:36:42.199Z,5.13
2019-04-07T05:41:49.087Z,5.17
2019-04-07T05:44:18.967Z,4.83
2019-04-07T05:46:49.809Z,4.47
2019-04-07T05:49:22.142Z,6.57
2019-04-07T05:51:50.846Z,4.80
2019-04-07T05:54:20.920Z,5.30
2019-04-07T05:56:51.524Z,5.27
2019-04-07T05:59:21.082Z,4.80
2019-04-07T06:01:54.775Z,4.80
2019-04-07T06:04:21.785Z,5.10
2019-04-07T06:09:26.404Z,5.70
2019-04-07T06:11:56.813Z,4.87
2019-04-07T06:14:26.047Z,5.67
2019-04-07T06:16:57.033Z,6.43
2019-04-07T06:19:26.329Z,5.27
2019-04-07T06:22:19.881Z,5.17
2019-04-07T06:24:48.752Z,5.10
2019-04-07T06:27:19.560Z,5.37
2019-04-07T06:29:50.102Z,6.33
2019-04-07T06:33:00.607Z,5.47
2019-04-07T06:35:31.443Z,5.13
2019-04-07T06:38:05.415Z,5.93
2019-04-07T06:40:32.706Z,5.80
2019-04-07T06:43:05.284Z,5.70
2019-04-07T06:45:54.169Z,5.17
2019-04-07T06:48:22.898Z,7.13
2019-04-07T06:50:59.327Z,5.80
2019-04-07T06:53:49.043Z,5.77
2019-04-07T06:56:38.084Z,6.20
2019-04-07T06:59:16.652Z,6.17
2019-04-07T07:02:05.533Z,6.60
2019-04-07T07:04:54.000Z,5.33
2019-04-07T07:07:42.534Z,5.83
2019-04-07T07:10:35.685Z,5.97
2019-04-07T07:13:28.350Z,5.73
2019-04-07T07:16:14.553Z,24.77
2019-04-07T07:19:02.054Z,20.70
2019-04-07T07:21:51.132Z,11.10
2019-04-07T07:24:24.416Z,7.63
2019-04-07T07:26:51.620Z,6.73
2019-04-07T07:29:21.379Z,5.97
2019-04-07T07:31:53.112Z,6.30
2019-04-07T07:34:23.316Z,6.63
2019-04-07T07:36:56.620Z,6.57
2019-04-07T07:39:25.132Z,6.93
2019-04-07T07:41:56.661Z,5.87
2019-04-07T07:44:26.743Z,7.13
2019-04-07T07:46:57.079Z,6.00
2019-04-07T07:49:28.854Z,6.13
2019-04-07T07:51:59.247Z,5.77
2019-04-07T07:54:30.559Z,8.23
2019-04-07T07:57:00.296Z,7.10
2019-04-07T07:59:33.540Z,6.20
2019-04-07T08:02:01.250Z,6.57
2019-04-07T08:04:31.602Z,6.43
2019-04-07T08:07:02.622Z,6.07
2019-04-07T08:09:32.857Z,7.40
2019-04-07T08:12:03.531Z,6.93
2019-04-07T08:14:34.925Z,7.57
2019-04-07T08:17:05.710Z,5.87
2019-04-07T08:19:34.920Z,6.47
2019-04-07T08:22:06.449Z,6.93
2019-04-07T08:24:36.228Z,6.90
2019-04-07T08:27:07.351Z,6.33
2019-04-07T08:29:39.554Z,6.77
2019-04-07T08:32:09.313Z,7.63
2019-04-07T08:34:38.602Z,6.60
2019-04-07T08:37:08.405Z,6.83
2019-04-07T08:39:39.006Z,8.77
2019-04-07T08:42:13.974Z,10.90
2019-04-07T08:44:40.992Z,6.03
2019-04-07T08:47:18.867Z,6.70
2019-04-07T08:49:43.267Z,6.53
2019-04-07T08:52:12.860Z,6.10
2019-04-07T08:54:44.362Z,5.80
2019-04-07T08:57:15.274Z,5.90
2019-04-07T08:59:45.560Z,5.90
2019-04-07T09:02:14.903Z,6.20
2019-04-07T09:05:27.666Z,5.80
2019-04-07T09:07:57.395Z,6.60
2019-04-07T09:13:33.156Z,6.00
2019-04-07T09:16:22.480Z,6.10
2019-04-07T09:19:10.939Z,6.40
2019-04-07T09:21:59.112Z,6.30
2019-04-07T09:24:47.307Z,6.30
2019-04-07T09:27:36.345Z,6.30
2019-04-07T09:33:27.097Z,6.13
2019-04-07T09:36:15.224Z,6.33
2019-04-07T09:39:03.919Z,8.77
2019-04-07T09:41:55.189Z,5.97
2019-04-07T09:44:43.493Z,5.93
2019-04-07T09:47:51.196Z,6.57
2019-04-07T09:50:39.680Z,6.90
2019-04-07T09:53:28.634Z,6.67
2019-04-07T09:56:18.397Z,8.53
2019-04-07T09:59:07.836Z,7.43
2019-04-07T10:01:47.864Z,7.07
2019-04-07T10:04:38.612Z,6.97
2019-04-07T10:07:26.555Z,8.00
2019-04-07T10:10:15.007Z,7.70
2019-04-07T10:13:03.356Z,7.30
2019-04-07T10:15:51.535Z,8.23
2019-04-07T10:18:34.128Z,8.63
2019-04-07T10:21:22.960Z,8.87
2019-04-07T10:24:11.811Z,8.60
2019-04-07T10:27:00.338Z,8.27
2019-04-07T10:29:50.332Z,8.07
2019-04-07T10:32:27.908Z,7.80
2019-04-07T10:35:03.966Z,10.00
2019-04-07T10:37:53.154Z,9.93
2019-04-07T10:40:42.021Z,10.17
2019-04-07T10:43:30.325Z,11.23
2019-04-07T10:46:18.450Z,12.07
2019-04-07T10:49:06.827Z,15.63
2019-04-07T10:51:55.041Z,14.90
2019-04-07T10:54:43.815Z,19.00
2019-04-07T10:57:32.234Z,14.87
2019-04-07T11:00:21.396Z,17.23
2019-04-07T11:02:57.274Z,14.90
2019-04-07T11:05:38.326Z,18.07
2019-04-07T11:08:27.658Z,17.23
2019-04-07T11:11:17.060Z,16.43
2019-04-07T11:14:05.833Z,14.27
2019-04-07T11:16:54.925Z,17.00
2019-04-07T11:19:43.499Z,13.07
2019-04-07T11:22:33.107Z,15.43
2019-04-07T11:25:21.852Z,15.23
2019-04-07T11:27:58.337Z,15.07
2019-04-07T11:30:47.249Z,15.77
2019-04-07T11:33:37.249Z,16.60
2019-04-07T11:36:23.513Z,16.87
2019-04-07T11:39:01.332Z,16.33
2019-04-07T11:41:49.603Z,16.73
2019-04-07T11:44:24.913Z,18.10
2019-04-07T11:47:13.168Z,19.97
2019-04-07T11:49:48.558Z,16.97
2019-04-07T11:52:37.170Z,15.17
2019-04-07T11:55:17.368Z,20.50
2019-04-07T11:58:14.827Z,21.53
2019-04-07T12:00:57.121Z,22.97
2019-04-07T12:03:45.424Z,22.50
2019-04-07T12:06:34.244Z,21.60
2019-04-07T12:09:44.300Z,23.23
2019-04-07T12:12:32.515Z,22.37
2019-04-07T12:15:24.210Z,23.67
2019-04-07T12:18:03.429Z,22.37
2019-04-07T12:20:39.769Z,25.77
2019-04-07T12:23:28.627Z,23.77
2019-04-07T12:26:17.158Z,22.67
2019-04-07T12:29:05.856Z,22.57
2019-04-07T12:31:45.366Z,22.53
2019-04-07T12:34:34.336Z,20.13
2019-04-07T12:37:14.411Z,22.03
2019-04-07T12:39:55.509Z,20.70
2019-04-07T12:42:45.182Z,20.10
2019-04-07T12:48:42.365Z,19.57
2019-04-07T12:51:30.821Z,21.30
2019-04-07T12:54:19.037Z,18.43
2019-04-07T12:57:08.520Z,18.67
2019-04-07T12:59:57.870Z,18.83
2019-04-07T13:02:47.480Z,18.97
2019-04-07T13:05:36.714Z,18.80
2019-04-07T13:08:25.804Z,17.83
2019-04-07T13:11:25.431Z,18.67
2019-04-07T13:14:08.156Z,16.20
2019-04-07T13:16:56.351Z,15.03
2019-04-07T13:19:48.007Z,17.30
2019-04-07T13:22:43.649Z,14.43
2019-04-07T13:25:54.316Z,13.37
2019-04-07T13:28:42.145Z,13.57
2019-04-07T13:31:30.434Z,12.23
2019-04-07T13:34:18.540Z,14.40
2019-04-07T13:37:07.024Z,13.70
2019-04-07T13:39:55.585Z,12.77
2019-04-07T13:42:33.683Z,11.93
2019-04-07T13:45:22.938Z,11.73
2019-04-07T13:48:11.526Z,12.77
2019-04-07T13:51:00.896Z,12.53
2019-04-07T13:53:50.018Z,12.17
2019-04-07T13:56:39.674Z,13.47
2019-04-07T13:59:29.414Z,11.33
2019-04-07T14:02:17.661Z,11.60
2019-04-07T14:05:09.029Z,16.77
2019-04-07T14:07:57.078Z,10.97
2019-04-07T14:10:46.138Z,10.43
2019-04-07T14:13:22.136Z,10.83
2019-04-07T14:16:11.294Z,9.67
2019-04-07T14:18:51.310Z,10.20
2019-04-07T14:21:37.439Z,10.30
2019-04-07T14:24:16.529Z,10.43
2019-04-07T14:27:07.315Z,9.67
2019-04-07T14:29:47.145Z,11.17
2019-04-07T14:32:36.330Z,11.60
2019-04-07T14:35:26.963Z,12.40
2019-04-07T14:38:15.756Z,10.93
2019-04-07T14:41:03.954Z,11.80
2019-04-07T14:43:52.863Z,11.37
2019-04-07T14:46:30.331Z,11.37
2019-04-07T14:49:18.559Z,11.30
2019-04-07T14:52:06.910Z,12.17
2019-04-07T14:54:59.088Z,11.40
2019-04-07T14:57:46.430Z,10.60
2019-04-07T15:00:59.142Z,10.83
2019-04-07T15:03:26.535Z,11.57
2019-04-07T15:05:58.260Z,13.27
2019-04-07T15:08:52.650Z,12.83
2019-04-07T15:11:41.189Z,14.20
2019-04-07T15:14:12.249Z,13.23
2019-04-07T15:16:42.750Z,14.27
2019-04-07T15:19:13.741Z,14.80
2019-04-07T15:21:45.246Z,15.73
2019-04-07T15:24:16.505Z,14.63
2019-04-07T15:26:49.849Z,14.87
2019-04-07T15:29:18.443Z,15.10
2019-04-07T15:31:50.782Z,14.20
2019-04-07T15:34:19.781Z,13.67
2019-04-07T15:36:51.052Z,13.17
2019-04-07T15:39:21.538Z,13.43
2019-04-07T15:41:51.040Z,13.73
2019-04-07T15:44:22.607Z,13.67
2019-04-07T15:46:53.392Z,12.33
2019-04-07T15:49:27.407Z,13.35
2019-04-07T15:51:55.160Z,13.95
2019-04-07T15:54:25.846Z,12.90
2019-04-07T15:56:57.916Z,14.07
2019-04-07T15:59:29.429Z,14.23
2019-04-07T16:01:57.369Z,14.47
2019-04-07T16:04:28.659Z,13.65
2019-04-07T16:06:57.645Z,13.95
2019-04-07T16:09:36.078Z,14.35
2019-04-07T16:11:59.173Z,14.55
2019-04-07T16:14:29.767Z,14.25
2019-04-07T16:17:03.136Z,13.78
2019-04-07T16:19:39.654Z,13.18
2019-04-07T16:22:01.883Z,13.28
2019-04-07T16:24:31.199Z,13.05
2019-04-07T16:27:03.945Z,12.53
2019-04-07T16:29:31.356Z,12.50
2019-04-07T16:32:00.728Z,12.25
2019-04-07T16:34:30.446Z,12.07
2019-04-07T16:37:00.415Z,11.65
2019-04-07T16:39:33.485Z,11.35
2019-04-07T16:42:04.321Z,11.35
2019-04-07T16:44:36.279Z,10.25
2019-04-07T16:47:04.884Z,10.82
2019-04-07T16:49:34.500Z,12.58
2019-04-07T16:52:06.733Z,10.60
2019-04-07T16:54:37.216Z,10.77
2019-04-07T16:57:17.889Z,11.77
2019-04-07T16:59:47.901Z,11.07
2019-04-07T17:02:18.247Z,11.33
2019-04-07T17:04:48.399Z,11.80
2019-04-07T17:07:18.132Z,11.27
2019-04-07T17:09:48.916Z,11.37
2019-04-07T17:12:18.467Z,11.47
2019-04-07T17:14:49.162Z,11.07
2019-04-07T17:17:21.546Z,11.23
2019-04-07T17:19:50.128Z,11.10
2019-04-07T17:22:19.741Z,10.30
2019-04-07T17:24:49.851Z,10.93
2019-04-07T17:27:19.386Z,10.93
2019-04-07T17:29:52.565Z,10.93
2019-04-07T17:32:19.976Z,10.70
2019-04-07T17:34:49.778Z,10.47
2019-04-07T17:37:19.064Z,10.50
2019-04-07T17:39:57.433Z,11.03
2019-04-07T17:42:28.280Z,11.43
2019-04-07T17:45:11.059Z,10.93
2019-04-07T17:48:02.996Z,10.73
2019-04-07T17:50:55.373Z,11.13
2019-04-07T17:53:46.572Z,11.90
2019-04-07T17:56:36.850Z,11.10
2019-04-07T17:59:38.935Z,12.10
2019-04-07T18:02:53.861Z,11.43
2019-04-07T18:05:35.195Z,12.40
2019-04-07T18:08:16.055Z,11.47
2019-04-07T18:11:07.547Z,11.67
2019-04-07T18:14:07.958Z,12.20
2019-04-07T18:16:54.835Z,11.70
2019-04-07T18:19:35.260Z,11.73
2019-04-07T18:22:27.478Z,12.47
2019-04-07T18:25:02.778Z,11.83
2019-04-07T18:27:48.280Z,12.90
2019-04-07T18:30:36.047Z,11.97
2019-04-07T18:33:28.150Z,11.30
2019-04-07T18:36:09.091Z,11.83
2019-04-07T18:38:48.421Z,12.20
2019-04-07T18:41:56.108Z,12.27
2019-04-07T18:44:46.727Z,12.20
2019-04-07T18:47:29.813Z,12.00
2019-04-07T18:50:07.643Z,12.03
2019-04-07T18:53:10.649Z,11.33
2019-04-07T18:56:08.906Z,11.87
2019-04-07T18:58:59.172Z,12.43
2019-04-07T19:01:46.923Z,12.10
2019-04-07T19:04:30.515Z,11.70
2019-04-07T19:07:25.695Z,11.97
2019-04-07T19:10:17.666Z,12.77
2019-04-07T19:13:14.585Z,12.27
2019-04-07T19:15:59.816Z,12.30
2019-04-07T19:18:53.296Z,13.37
2019-04-07T19:21:29.508Z,12.67
2019-04-07T19:24:19.556Z,13.20
2019-04-07T19:27:15.294Z,13.53
2019-04-07T19:29:59.591Z,12.03
2019-04-07T19:32:44.862Z,11.83
2019-04-07T19:35:41.850Z,13.20
2019-04-07T19:38:27.437Z,12.00
2019-04-07T19:41:13.371Z,12.00
2019-04-07T19:44:04.609Z,12.63
2019-04-07T19:46:46.008Z,11.43
2019-04-07T19:49:34.731Z,13.00
2019-04-07T19:52:21.645Z,11.97
2019-04-07T19:55:10.176Z,11.57
2019-04-07T19:58:01.970Z,12.30
2019-04-07T20:00:56.521Z,12.77
2019-04-07T20:03:43.081Z,12.67
2019-04-07T20:06:34.100Z,14.23
2019-04-07T20:09:28.215Z,13.43
2019-04-07T20:12:16.343Z,13.30
2019-04-07T20:15:08.864Z,14.37
2019-04-07T20:18:00.738Z,16.57
2019-04-07T20:20:53.537Z,16.43
2019-04-07T20:23:48.005Z,14.03
2019-04-07T20:26:45.282Z,15.07
2019-04-07T20:29:43.754Z,14.60
2019-04-07T20:32:33.458Z,12.73
2019-04-07T20:35:20.925Z,12.97
2019-04-07T20:38:09.115Z,14.27
2019-04-07T20:40:52.401Z,12.17
2019-04-07T20:43:40.612Z,12.70
2019-04-07T20:46:31.920Z,13.97
2019-04-07T20:49:18.583Z,10.57
2019-04-07T20:51:56.479Z,10.87
2019-04-07T20:54:43.106Z,11.70
2019-04-07T20:57:24.133Z,11.33
2019-04-07T21:00:03.678Z,10.57
2019-04-07T21:02:45.378Z,10.87
2019-04-07T21:05:40.525Z,11.37
2019-04-07T21:08:30.249Z,11.50
2019-04-07T21:11:21.630Z,10.77
2019-04-07T21:14:09.871Z,11.27
2019-04-07T21:16:51.600Z,12.97
2019-04-07T21:19:39.820Z,9.83
2019-04-07T21:22:31.410Z,10.30
2019-04-07T21:25:09.282Z,11.07
2019-04-07T21:28:07.716Z,11.13
2019-04-07T21:30:43.865Z,10.50
2019-04-07T21:33:30.733Z,11.27
2019-04-07T21:36:12.018Z,10.83
2019-04-07T21:39:04.541Z,10.33
2019-04-07T21:41:52.743Z,10.13
2019-04-07T21:44:54.091Z,9.80
2019-04-07T21:47:40.993Z,10.27
2019-04-07T21:50:42.567Z,9.90
2019-04-07T21:53:32.013Z,9.77
2019-04-07T21:56:11.424Z,9.77
2019-04-07T21:58:59.202Z,9.77
2019-04-07T22:01:47.624Z,10.37
2019-04-07T22:04:54.594Z,10.87
2019-04-07T22:07:50.071Z,11.27
2019-04-07T22:10:20.731Z,12.13
2019-04-07T22:12:50.537Z,10.23
2019-04-07T22:15:19.810Z,10.23
2019-04-07T22:17:49.160Z,9.93
2019-04-07T22:20:20.112Z,10.60
2019-04-07T22:22:49.834Z,9.60
2019-04-07T22:25:31.245Z,10.63
2019-04-07T22:28:00.648Z,9.97
2019-04-07T22:30:30.604Z,10.03
2019-04-07T22:32:59.876Z,9.60
2019-04-07T22:35:29.137Z,10.73
2019-04-07T22:37:58.930Z,11.07
2019-04-07T22:40:32.179Z,10.23
2019-04-07T22:42:59.620Z,9.53
2019-04-07T22:45:30.270Z,9.77
2019-04-07T22:47:59.858Z,11.23
2019-04-07T22:50:29.055Z,9.80
2019-04-07T22:52:58.332Z,10.57
2019-04-07T22:55:27.566Z,9.83
2019-04-07T22:57:57.843Z,9.33
2019-04-07T23:00:27.209Z,12.37
2019-04-07T23:02:56.492Z,9.97
2019-04-07T23:05:25.767Z,10.33
2019-04-07T23:07:55.024Z,11.23
2019-04-07T23:10:25.118Z,9.50
2019-04-07T23:12:55.248Z,10.60
2019-04-07T23:15:37.426Z,9.80
2019-04-07T23:17:55.650Z,10.43
2019-04-07T23:20:24.918Z,8.63
2019-04-07T23:22:54.276Z,9.93
2019-04-07T23:25:23.501Z,8.97
2019-04-07T23:27:52.768Z,7.90
2019-04-07T23:30:24.238Z,7.97
2019-04-07T23:32:53.779Z,7.83
2019-04-07T23:35:22.982Z,8.67
2019-04-07T23:37:52.232Z,8.23
2019-04-07T23:40:21.428Z,7.50
2019-04-07T23:42:50.938Z,8.50
2019-04-07T23:45:20.148Z,8.73
2019-04-07T23:47:50.364Z,8.50
2019-04-07T23:50:19.999Z,8.77
2019-04-07T23:52:49.745Z,7.93
2019-04-07T23:55:20.375Z,9.40
2019-04-07T23:57:49.734Z,8.43
